Ile De Groix — FGF7300 — position and weather

sailwx.info

Track history (hours):
 
Tides and Currents Weather Stations Pressure Air Temp Water Temp Dewpoint Dewpoint Depression Visibility Wind Speed Wind Dir Waves Ship Positions

Ile De Groix

Last reported at 2018-Feb-25 17:28 UTC. Time now 2018-Feb-26 01:59 UTC.
Position N 47°21' W 003°09'.

Length 46 m; draft 2.8 m.

Type: Passenger vessel. MMSI: 227749270.

Date/timePositionNaut miles runAvg speedWind from/ knotsBaromVisibWave heightAir tempDewpointWater temp
2018-Feb-25 17:28N 47°21' W 003°09'0 0.2
2018-Feb-25 17:01N 47°21' W 003°09'611.0
2018-Feb-25 16:31N 47°26' W 003°08'2 4.7
2018-Feb-25 16:00N 47°29' W 003°07'0 0.1
2018-Feb-25 15:31N 47°29' W 003°07'612.1
2018-Feb-25 15:01N 47°23' W 003°08'2 3.4
2018-Feb-25 14:29N 47°21' W 003°09'0 0.7
2018-Feb-25 14:01N 47°21' W 003°09'611.9
2018-Feb-25 13:31N 47°27' W 003°08'2 3.7
2018-Feb-25 13:01N 47°29' W 003°07'0 0.0
2018-Feb-25 12:30N 47°29' W 003°07'3 5.4
2018-Feb-25 12:01N 47°26' W 003°08'510.0
2018-Feb-25 11:29N 47°21' W 003°09'0 0.0
2018-Feb-25 11:00N 47°21' W 003°09'2 4.7
2018-Feb-25 10:30N 47°23' W 003°08'611.2
2018-Feb-25 10:00N 47°29' W 003°07'0 0.0
2018-Feb-25 09:31N 47°29' W 003°07'5 9.8
2018-Feb-25 09:01N 47°24' W 003°08'3 5.8
2018-Feb-25 08:30N 47°21' W 003°09'0 0.0
2018-Feb-25 07:58N 47°21' W 003°09'4 9.6
2018-Feb-25 07:31N 47°25' W 003°08'3 6.9
2018-Feb-25 07:00N 47°29' W 003°07'3 6.0
2018-Feb-25 06:30N 47°26' W 003°08'5 9.6
2018-Feb-25 06:00N 47°21' W 003°09'0 0.0
2018-Feb-25 05:30N 47°21' W 003°09'0 0.0
2018-Feb-24 17:31N 47°21' W 003°09'0 0.0
2018-Feb-24 17:30N 47°21' W 003°09'0 0.2
2018-Feb-24 17:01N 47°21' W 003°09'611.4
2018-Feb-24 16:30N 47°26' W 003°08'2 4.3
2018-Feb-24 16:00N 47°29' W 003°07'0 0.0
2018-Feb-24 15:30N 47°29' W 003°07'611.7
2018-Feb-24 15:00N 47°23' W 003°08'2 2.1
2018-Feb-24 14:04N 47°21' W 003°09'0 4.3
2018-Feb-24 14:01N 47°21' W 003°09'611.4
2018-Feb-24 13:30N 47°26' W 003°08'2 4.3
2018-Feb-24 13:00N 47°29' W 003°07'0 0.0
2018-Feb-24 12:30N 47°29' W 003°07'3 6.5
2018-Feb-24 12:00N 47°25' W 003°08'5 9.4
2018-Feb-24 11:31N 47°21' W 003°09'0 0.0
2018-Feb-24 11:00N 47°21' W 003°09'3 6.1
2018-Feb-24 10:31N 47°24' W 003°08'5 9.7
2018-Feb-24 10:00N 47°29' W 003°07'0 0.0
2018-Feb-24 09:30N 47°29' W 003°07'510.8
2018-Feb-24 09:00N 47°23' W 003°08'3 4.9
2018-Feb-24 08:29N 47°21' W 003°09'0 0.0
2018-Feb-24 08:00N 47°21' W 003°09'5 9.3
2018-Feb-24 07:30N 47°25' W 003°08'3 6.5
2018-Feb-24 07:00N 47°29' W 003°07'0 0.4
2018-Feb-24 06:31N 47°28' W 003°07'612.2
2018-Feb-24 05:59N 47°22' W 003°08'1 2.9
2018-Feb-24 05:30N 47°21' W 003°09'0 0.1
2018-Feb-24 05:01N 47°21' W 003°09'0 0.0
2018-Feb-23 20:07N 47°21' W 003°09'0 0.0
2018-Feb-23 20:00N 47°21' W 003°09'2 3.1
2018-Feb-23 19:30N 47°22' W 003°08'612.2
2018-Feb-23 19:00N 47°28' W 003°07'0 0.5
2018-Feb-23 18:29N 47°29' W 003°07'3 6.7
2018-Feb-23 18:00N 47°25' W 003°08'5 7.6
2018-Feb-23 17:23N 47°21' W 003°09'0 0.3
2018-Feb-23 17:00N 47°21' W 003°09'611.3
2018-Feb-23 16:30N 47°26' W 003°08'2 4.5
2018-Feb-23 16:01N 47°29' W 003°07'0 0.1
2018-Feb-23 15:31N 47°29' W 003°07'611.9
2018-Feb-23 15:00N 47°23' W 003°08'2 3.8
2018-Feb-23 14:30N 47°21' W 003°09'0 0.2
2018-Feb-23 14:00N 47°21' W 003°09'510.9
2018-Feb-23 13:30N 47°26' W 003°08'2 4.8
2018-Feb-23 13:00N 47°29' W 003°07'0 0.0
2018-Feb-23 12:30N 47°29' W 003°07'3 6.9
2018-Feb-23 12:00N 47°25' W 003°08'4 8.2
2018-Feb-23 11:28N 47°21' W 003°09'0 0.0
2018-Feb-23 10:49N 47°21' W 003°09'2 7.7
2018-Feb-23 10:30N 47°23' W 003°08'611.1
2018-Feb-23 10:00N 47°29' W 003°07'1 1.1
2018-Feb-23 09:30N 47°28' W 003°07'611.9
2018-Feb-23 09:00N 47°22' W 003°08'2 2.8
2018-Feb-23 08:27N 47°21' W 003°09'0 0.5
2018-Feb-23 08:01N 47°21' W 003°09'611.9
2018-Feb-23 07:30N 47°27' W 003°08'2 3.8
2018-Feb-23 07:00N 47°29' W 003°07'1 1.1
2018-Feb-23 06:31N 47°28' W 003°07'612.2
2018-Feb-23 06:00N 47°22' W 003°08'1 2.6
2018-Feb-23 05:30N 47°21' W 003°09'0 0.1
2018-Feb-23 05:00N 47°21' W 003°09'0 0.0
2018-Feb-22 17:36N 47°21' W 003°09'0 0.0
2018-Feb-22 17:30N 47°21' W 003°09'1 1.4
2018-Feb-22 17:00N 47°21' W 003°09'612.2
2018-Feb-22 16:30N 47°28' W 003°07'1 2.2
2018-Feb-22 16:00N 47°29' W 003°07'1 2.0
2018-Feb-22 15:30N 47°28' W 003°07'612.1
2018-Feb-22 15:00N 47°22' W 003°08'1 1.8
2018-Feb-22 14:29N 47°21' W 003°09'0 0.1
2018-Feb-22 14:00N 47°21' W 003°09'510.8
2018-Feb-22 13:30N 47°26' W 003°08'2 4.9
2018-Feb-22 13:00N 47°29' W 003°07'0 0.0
2018-Feb-22 12:30N 47°29' W 003°07'3 6.4
2018-Feb-22 12:00N 47°25' W 003°08'5 9.3
2018-Feb-22 11:30N 47°21' W 003°09'0 0.0
2018-Feb-22 11:00N 47°21' W 003°09'3 5.8
2018-Feb-22 10:30N 47°24' W 003°08'510.0
2018-Feb-22 10:00N 47°29' W 003°07'0 0.0
2018-Feb-22 09:30N 47°29' W 003°07'5 9.7
2018-Feb-22 09:00N 47°24' W 003°08'3 5.4
2018-Feb-22 08:27N 47°21' W 003°09'0 0.0
2018-Feb-22 08:00N 47°21' W 003°09'510.6
2018-Feb-22 07:30N 47°26' W 003°08'3 5.3
2018-Feb-22 07:00N 47°29' W 003°07'0 0.3
2018-Feb-22 06:31N 47°29' W 003°07'612.0
2018-Feb-22 06:00N 47°23' W 003°08'2 3.6
2018-Feb-22 05:30N 47°21' W 003°09'0 0.1
2018-Feb-22 05:00N 47°21' W 003°09'0 0.0
2018-Feb-21 17:27N 47°21' W 003°09'0 0.1
2018-Feb-21 17:00N 47°21' W 003°09'611.3
2018-Feb-21 16:30N 47°26' W 003°08'2 4.7
2018-Feb-21 16:00N 47°29' W 003°07'0 0.0
2018-Feb-21 15:31N 47°29' W 003°07'611.5
2018-Feb-21 15:00N 47°23' W 003°08'2 2.8
2018-Feb-21 14:16N 47°21' W 003°09'0 0.2
2018-Feb-21 14:00N 47°21' W 003°09'510.9
2018-Feb-21 13:30N 47°26' W 003°08'2 4.7
2018-Feb-21 13:00N 47°29' W 003°07'0 0.0
2018-Feb-21 12:30N 47°29' W 003°07'3 6.4
2018-Feb-21 12:00N 47°25' W 003°08'5 9.1
2018-Feb-21 11:30N 47°21' W 003°09'0 0.0
2018-Feb-21 11:00N 47°21' W 003°09'3 6.1
2018-Feb-21 10:30N 47°24' W 003°08'5 9.7
2018-Feb-21 10:00N 47°29' W 003°07'0 0.2
2018-Feb-21 09:31N 47°29' W 003°07'611.0
2018-Feb-21 09:00N 47°23' W 003°09'2 4.0
2018-Feb-21 08:26N 47°21' W 003°09'0 0.0
2018-Feb-21 07:59N 47°21' W 003°09'510.6
2018-Feb-21 07:30N 47°26' W 003°08'3 5.5
2018-Feb-21 07:00N 47°29' W 003°07'1 1.1
2018-Feb-21 06:30N 47°28' W 003°07'611.1
2018-Feb-21 06:00N 47°23' W 003°08'2 3.7
2018-Feb-21 05:30N 47°21' W 003°09'0 0.0
2018-Feb-20 17:35N 47°21' W 003°09'0 0.1
2018-Feb-20 17:30N 47°21' W 003°09'1 1.5
2018-Feb-20 17:01N 47°21' W 003°09'612.4
2018-Feb-20 16:30N 47°28' W 003°07'1 1.9
2018-Feb-20 16:00N 47°29' W 003°07'0 0.6
2018-Feb-20 15:30N 47°28' W 003°07'611.2
2018-Feb-20 15:00N 47°23' W 003°08'2 4.0
2018-Feb-20 14:30N 47°21' W 003°09'0 0.9
2018-Feb-20 14:00N 47°21' W 003°09'612.2
2018-Feb-20 13:31N 47°27' W 003°07'2 3.2
2018-Feb-20 13:00N 47°29' W 003°07'0 0.0
2018-Feb-20 12:30N 47°29' W 003°07'3 5.7
2018-Feb-20 12:00N 47°26' W 003°08'5 5.2
2018-Feb-20 11:03N 47°21' W 003°09'0 0.0
2018-Feb-20 10:53N 47°21' W 003°09'2 6.7
2018-Feb-20 10:31N 47°23' W 003°08'510.8
2018-Feb-20 10:00N 47°29' W 003°07'0 0.0
2018-Feb-20 09:30N 47°29' W 003°07'5 9.7
2018-Feb-20 09:00N 47°24' W 003°08'3 5.6
2018-Feb-20 08:27N 47°21' W 003°09'0 0.0
2018-Feb-20 07:58N 47°21' W 003°09'5 9.9
2018-Feb-20 07:30N 47°25' W 003°07'3 6.8
2018-Feb-20 07:00N 47°29' W 003°07'0 0.9
2018-Feb-20 06:30N 47°28' W 003°07'611.4
2018-Feb-20 06:00N 47°23' W 003°08'2 3.5
2018-Feb-20 05:30N 47°21' W 003°09'0 0.1
2018-Feb-20 05:00N 47°21' W 003°09'0 0.0
2018-Feb-19 17:34N 47°21' W 003°09'0 0.0
2018-Feb-19 17:30N 47°21' W 003°09'1 1.3
2018-Feb-19 17:00N 47°21' W 003°08'612.3
2018-Feb-19 16:30N 47°27' W 003°07'1 2.3
2018-Feb-19 16:00N 47°29' W 003°07'1 3.0
2018-Feb-19 15:30N 47°27' W 003°08'611.7
2018-Feb-19 15:00N 47°21' W 003°09'1 1.1
2018-Feb-19 14:20N 47°21' W 003°09'1 4.5
2018-Feb-19 14:01N 47°22' W 003°08'612.0
2018-Feb-19 13:30N 47°28' W 003°07'0 0.8
2018-Feb-19 13:00N 47°29' W 003°07'0 0.0
2018-Feb-19 12:30N 47°29' W 003°07'3 6.8
2018-Feb-19 12:00N 47°25' W 003°08'4 8.6
2018-Feb-19 11:29N 47°21' W 003°09'0 0.0
2018-Feb-19 10:51N 47°21' W 003°09'3 9.8
2018-Feb-19 10:30N 47°24' W 003°08'4 8.8
2018-Feb-19 10:00N 47°29' W 003°07'0 0.4
2018-Feb-19 09:30N 47°28' W 003°07'611.7
2018-Feb-19 09:00N 47°23' W 003°08'2 2.7
2018-Feb-19 08:18N 47°21' W 003°09'0 0.0
2018-Feb-19 07:59N 47°21' W 003°09'510.5
2018-Feb-19 07:30N 47°26' W 003°08'3 5.6
2018-Feb-19 07:00N 47°29' W 003°07'0 0.0
2018-Feb-19 06:30N 47°29' W 003°07'3 6.0
2018-Feb-19 06:00N 47°26' W 003°08'5 9.7
2018-Feb-19 05:30N 47°21' W 003°09'0 0.0
2018-Feb-19 05:00N 47°21' W 003°09'0 0.0
2018-Feb-18 17:28N 47°21' W 003°09'0 0.2
2018-Feb-18 17:01N 47°21' W 003°09'611.2
2018-Feb-18 16:30N 47°26' W 003°07'2 4.6
2018-Feb-18 16:00N 47°29' W 003°07'0 0.3
2018-Feb-18 15:30N 47°29' W 003°07'611.5
2018-Feb-18 15:00N 47°23' W 003°08'2 2.2
2018-Feb-18 14:04N 47°21' W 003°09'0 6.6
2018-Feb-18 14:00N 47°21' W 003°09'612.0
2018-Feb-18 13:30N 47°27' W 003°07'2 3.5
2018-Feb-18 13:00N 47°29' W 003°07'0 0.0
2018-Feb-18 12:30N 47°29' W 003°07'3 6.0
2018-Feb-18 12:00N 47°26' W 003°09'5 4.2
2018-Feb-18 10:51N 47°21' W 003°09'3 9.6
2018-Feb-18 10:30N 47°24' W 003°08'5 9.2
2018-Feb-18 10:00N 47°29' W 003°07'0 0.3
2018-Feb-18 09:31N 47°29' W 003°07'611.5
2018-Feb-18 09:00N 47°23' W 003°08'2 1.9
2018-Feb-18 07:55N 47°21' W 003°09'410.9
2018-Feb-18 07:30N 47°25' W 003°08'3 6.8
2018-Feb-18 07:00N 47°29' W 003°07'3 6.6
2018-Feb-18 06:30N 47°25' W 003°08'5 8.3
2018-Feb-18 05:57N 47°21' W 003°09'0 0.0
2018-Feb-18 05:30N 47°21' W 003°09'0 0.0
2018-Feb-17 17:28N 47°21' W 003°09'0 0.1
2018-Feb-17 17:00N 47°21' W 003°09'611.1
2018-Feb-17 16:30N 47°26' W 003°08'2 4.7
2018-Feb-17 16:00N 47°29' W 003°07'0 0.1
2018-Feb-17 15:31N 47°29' W 003°07'611.3
2018-Feb-17 15:00N 47°23' W 003°08'2 4.3
2018-Feb-17 14:30N 47°21' W 003°09'0 0.7
2018-Feb-17 14:00N 47°21' W 003°09'612.3
2018-Feb-17 13:30N 47°27' W 003°07'2 3.3
2018-Feb-17 13:00N 47°29' W 003°07'0 0.0
2018-Feb-17 12:30N 47°29' W 003°07'3 6.0
2018-Feb-17 12:00N 47°26' W 003°08'5 7.4
2018-Feb-17 11:21N 47°21' W 003°09'0 0.0
2018-Feb-17 11:00N 47°21' W 003°09'3 5.5
2018-Feb-17 10:30N 47°23' W 003°08'510.3
2018-Feb-17 10:00N 47°29' W 003°07'0 0.0
2018-Feb-17 09:30N 47°29' W 003°07'510.3
2018-Feb-17 09:00N 47°23' W 003°08'3 5.3
2018-Feb-17 08:30N 47°21' W 003°09'0 0.0
2018-Feb-17 07:59N 47°21' W 003°09'510.2
2018-Feb-17 07:30N 47°26' W 003°08'3 6.1
2018-Feb-17 07:01N 47°29' W 003°07'0 0.6
2018-Feb-17 06:31N 47°28' W 003°07'611.6
2018-Feb-17 06:00N 47°23' W 003°09'2 3.6
2018-Feb-17 05:30N 47°21' W 003°09'0 0.1
2018-Feb-17 05:00N 47°21' W 003°09'0 0.0
2018-Feb-16 19:57N 47°21' W 003°09'0 0.3
2018-Feb-16 19:31N 47°21' W 003°09'611.1
2018-Feb-16 19:00N 47°26' W 003°08'2 4.6
2018-Feb-16 18:30N 47°29' W 003°07'4 7.4
2018-Feb-16 18:00N 47°25' W 003°08'4 8.1
2018-Feb-16 17:29N 47°21' W 003°09'1 2.7
2018-Feb-16 17:00N 47°22' W 003°08'612.0
2018-Feb-16 16:30N 47°28' W 003°07'1 1.3
2018-Feb-16 16:00N 47°29' W 003°07'2 3.1
2018-Feb-16 15:30N 47°27' W 003°08'611.6
2018-Feb-16 15:00N 47°21' W 003°09'1 1.1
2018-Feb-16 14:30N 47°21' W 003°09'1 1.1
2018-Feb-16 14:00N 47°21' W 003°08'612.3
2018-Feb-16 13:30N 47°27' W 003°07'1 2.8
2018-Feb-16 13:00N 47°29' W 003°07'0 0.0
2018-Feb-16 12:30N 47°29' W 003°07'4 8.4
2018-Feb-16 12:00N 47°24' W 003°08'4 6.8
2018-Feb-16 11:28N 47°21' W 003°09'0 0.0
2018-Feb-16 10:59N 47°21' W 003°09'3 5.7
2018-Feb-16 10:30N 47°24' W 003°08'510.2
2018-Feb-16 10:00N 47°29' W 003°07'0 0.0
2018-Feb-16 09:31N 47°29' W 003°07'510.9
2018-Feb-16 09:00N 47°23' W 003°08'2 2.9
2018-Feb-16 08:10N 47°21' W 003°09'0 2.0
2018-Feb-16 08:01N 47°21' W 003°09'611.7
2018-Feb-16 07:30N 47°27' W 003°07'2 3.8
2018-Feb-16 07:00N 47°29' W 003°07'0 0.5
2018-Feb-16 06:31N 47°28' W 003°07'612.0
2018-Feb-16 06:00N 47°22' W 003°08'2 3.3
2018-Feb-16 05:30N 47°21' W 003°09'0 0.1
2018-Feb-16 05:00N 47°21' W 003°09'0 0.0
2018-Feb-15 17:37N 47°21' W 003°09'0 0.0
2018-Feb-15 17:30N 47°21' W 003°09'  
Track history (hours):
 
Tides and Currents Weather Stations Pressure Air Temp Water Temp Dewpoint Dewpoint Depression Visibility Wind Speed Wind Dir Waves Ship Positions

Ile De Groix

Last reported at 2018-Feb-25 17:28 UTC. Time now 2018-Feb-26 01:59 UTC.
Position N 47°21' W 003°09'.

Length 46 m; draft 2.8 m.

Type: Passenger vessel. MMSI: 227749270.

Date/timePositionNaut miles runAvg speedWind from/ knotsBaromVisibWave heightAir tempDewpointWater temp
2018-Feb-25 17:28N 47°21' W 003°09'0 0.2
2018-Feb-25 17:01N 47°21' W 003°09'611.0
2018-Feb-25 16:31N 47°26' W 003°08'2 4.7
2018-Feb-25 16:00N 47°29' W 003°07'0 0.1
2018-Feb-25 15:31N 47°29' W 003°07'612.1
2018-Feb-25 15:01N 47°23' W 003°08'2 3.4
2018-Feb-25 14:29N 47°21' W 003°09'0 0.7
2018-Feb-25 14:01N 47°21' W 003°09'611.9
2018-Feb-25 13:31N 47°27' W 003°08'2 3.7
2018-Feb-25 13:01N 47°29' W 003°07'0 0.0
2018-Feb-25 12:30N 47°29' W 003°07'3 5.4
2018-Feb-25 12:01N 47°26' W 003°08'510.0
2018-Feb-25 11:29N 47°21' W 003°09'0 0.0
2018-Feb-25 11:00N 47°21' W 003°09'2 4.7
2018-Feb-25 10:30N 47°23' W 003°08'611.2
2018-Feb-25 10:00N 47°29' W 003°07'0 0.0
2018-Feb-25 09:31N 47°29' W 003°07'5 9.8
2018-Feb-25 09:01N 47°24' W 003°08'3 5.8
2018-Feb-25 08:30N 47°21' W 003°09'0 0.0
2018-Feb-25 07:58N 47°21' W 003°09'4 9.6
2018-Feb-25 07:31N 47°25' W 003°08'3 6.9
2018-Feb-25 07:00N 47°29' W 003°07'3 6.0
2018-Feb-25 06:30N 47°26' W 003°08'5 9.6
2018-Feb-25 06:00N 47°21' W 003°09'0 0.0
2018-Feb-25 05:30N 47°21' W 003°09'0 0.0
2018-Feb-24 17:31N 47°21' W 003°09'0 0.0
2018-Feb-24 17:30N 47°21' W 003°09'0 0.2
2018-Feb-24 17:01N 47°21' W 003°09'611.4
2018-Feb-24 16:30N 47°26' W 003°08'2 4.3
2018-Feb-24 16:00N 47°29' W 003°07'0 0.0
2018-Feb-24 15:30N 47°29' W 003°07'611.7
2018-Feb-24 15:00N 47°23' W 003°08'2 2.1
2018-Feb-24 14:04N 47°21' W 003°09'0 4.3
2018-Feb-24 14:01N 47°21' W 003°09'611.4
2018-Feb-24 13:30N 47°26' W 003°08'2 4.3
2018-Feb-24 13:00N 47°29' W 003°07'0 0.0
2018-Feb-24 12:30N 47°29' W 003°07'3 6.5
2018-Feb-24 12:00N 47°25' W 003°08'5 9.4
2018-Feb-24 11:31N 47°21' W 003°09'0 0.0
2018-Feb-24 11:00N 47°21' W 003°09'3 6.1
2018-Feb-24 10:31N 47°24' W 003°08'5 9.7
2018-Feb-24 10:00N 47°29' W 003°07'0 0.0
2018-Feb-24 09:30N 47°29' W 003°07'510.8
2018-Feb-24 09:00N 47°23' W 003°08'3 4.9
2018-Feb-24 08:29N 47°21' W 003°09'0 0.0
2018-Feb-24 08:00N 47°21' W 003°09'5 9.3
2018-Feb-24 07:30N 47°25' W 003°08'3 6.5
2018-Feb-24 07:00N 47°29' W 003°07'0 0.4
2018-Feb-24 06:31N 47°28' W 003°07'612.2
2018-Feb-24 05:59N 47°22' W 003°08'1 2.9
2018-Feb-24 05:30N 47°21' W 003°09'0 0.1
2018-Feb-24 05:01N 47°21' W 003°09'0 0.0
2018-Feb-23 20:07N 47°21' W 003°09'0 0.0
2018-Feb-23 20:00N 47°21' W 003°09'2 3.1
2018-Feb-23 19:30N 47°22' W 003°08'612.2
2018-Feb-23 19:00N 47°28' W 003°07'0 0.5
2018-Feb-23 18:29N 47°29' W 003°07'3 6.7
2018-Feb-23 18:00N 47°25' W 003°08'5 7.6
2018-Feb-23 17:23N 47°21' W 003°09'0 0.3
2018-Feb-23 17:00N 47°21' W 003°09'611.3
2018-Feb-23 16:30N 47°26' W 003°08'2 4.5
2018-Feb-23 16:01N 47°29' W 003°07'0 0.1
2018-Feb-23 15:31N 47°29' W 003°07'611.9
2018-Feb-23 15:00N 47°23' W 003°08'2 3.8
2018-Feb-23 14:30N 47°21' W 003°09'0 0.2
2018-Feb-23 14:00N 47°21' W 003°09'510.9
2018-Feb-23 13:30N 47°26' W 003°08'2 4.8
2018-Feb-23 13:00N 47°29' W 003°07'0 0.0
2018-Feb-23 12:30N 47°29' W 003°07'3 6.9
2018-Feb-23 12:00N 47°25' W 003°08'4 8.2
2018-Feb-23 11:28N 47°21' W 003°09'0 0.0
2018-Feb-23 10:49N 47°21' W 003°09'2 7.7
2018-Feb-23 10:30N 47°23' W 003°08'611.1
2018-Feb-23 10:00N 47°29' W 003°07'1 1.1
2018-Feb-23 09:30N 47°28' W 003°07'611.9
2018-Feb-23 09:00N 47°22' W 003°08'2 2.8
2018-Feb-23 08:27N 47°21' W 003°09'0 0.5
2018-Feb-23 08:01N 47°21' W 003°09'611.9
2018-Feb-23 07:30N 47°27' W 003°08'2 3.8
2018-Feb-23 07:00N 47°29' W 003°07'1 1.1
2018-Feb-23 06:31N 47°28' W 003°07'612.2
2018-Feb-23 06:00N 47°22' W 003°08'1 2.6
2018-Feb-23 05:30N 47°21' W 003°09'0 0.1
2018-Feb-23 05:00N 47°21' W 003°09'0 0.0
2018-Feb-22 17:36N 47°21' W 003°09'0 0.0
2018-Feb-22 17:30N 47°21' W 003°09'1 1.4
2018-Feb-22 17:00N 47°21' W 003°09'612.2
2018-Feb-22 16:30N 47°28' W 003°07'1 2.2
2018-Feb-22 16:00N 47°29' W 003°07'1 2.0
2018-Feb-22 15:30N 47°28' W 003°07'612.1
2018-Feb-22 15:00N 47°22' W 003°08'1 1.8
2018-Feb-22 14:29N 47°21' W 003°09'0 0.1
2018-Feb-22 14:00N 47°21' W 003°09'510.8
2018-Feb-22 13:30N 47°26' W 003°08'2 4.9
2018-Feb-22 13:00N 47°29' W 003°07'0 0.0
2018-Feb-22 12:30N 47°29' W 003°07'3 6.4
2018-Feb-22 12:00N 47°25' W 003°08'5 9.3
2018-Feb-22 11:30N 47°21' W 003°09'0 0.0
2018-Feb-22 11:00N 47°21' W 003°09'3 5.8
2018-Feb-22 10:30N 47°24' W 003°08'510.0
2018-Feb-22 10:00N 47°29' W 003°07'0 0.0
2018-Feb-22 09:30N 47°29' W 003°07'5 9.7
2018-Feb-22 09:00N 47°24' W 003°08'3 5.4
2018-Feb-22 08:27N 47°21' W 003°09'0 0.0
2018-Feb-22 08:00N 47°21' W 003°09'510.6
2018-Feb-22 07:30N 47°26' W 003°08'3 5.3
2018-Feb-22 07:00N 47°29' W 003°07'0 0.3
2018-Feb-22 06:31N 47°29' W 003°07'612.0
2018-Feb-22 06:00N 47°23' W 003°08'2 3.6
2018-Feb-22 05:30N 47°21' W 003°09'0 0.1
2018-Feb-22 05:00N 47°21' W 003°09'0 0.0
2018-Feb-21 17:27N 47°21' W 003°09'0 0.1
2018-Feb-21 17:00N 47°21' W 003°09'611.3
2018-Feb-21 16:30N 47°26' W 003°08'2 4.7
2018-Feb-21 16:00N 47°29' W 003°07'0 0.0
2018-Feb-21 15:31N 47°29' W 003°07'611.5
2018-Feb-21 15:00N 47°23' W 003°08'2 2.8
2018-Feb-21 14:16N 47°21' W 003°09'0 0.2
2018-Feb-21 14:00N 47°21' W 003°09'510.9
2018-Feb-21 13:30N 47°26' W 003°08'2 4.7
2018-Feb-21 13:00N 47°29' W 003°07'0 0.0
2018-Feb-21 12:30N 47°29' W 003°07'3 6.4
2018-Feb-21 12:00N 47°25' W 003°08'5 9.1
2018-Feb-21 11:30N 47°21' W 003°09'0 0.0
2018-Feb-21 11:00N 47°21' W 003°09'3 6.1
2018-Feb-21 10:30N 47°24' W 003°08'5 9.7
2018-Feb-21 10:00N 47°29' W 003°07'0 0.2
2018-Feb-21 09:31N 47°29' W 003°07'611.0
2018-Feb-21 09:00N 47°23' W 003°09'2 4.0
2018-Feb-21 08:26N 47°21' W 003°09'0 0.0
2018-Feb-21 07:59N 47°21' W 003°09'510.6
2018-Feb-21 07:30N 47°26' W 003°08'3 5.5
2018-Feb-21 07:00N 47°29' W 003°07'1 1.1
2018-Feb-21 06:30N 47°28' W 003°07'611.1
2018-Feb-21 06:00N 47°23' W 003°08'2 3.7
2018-Feb-21 05:30N 47°21' W 003°09'0 0.0
2018-Feb-20 17:35N 47°21' W 003°09'0 0.1
2018-Feb-20 17:30N 47°21' W 003°09'1 1.5
2018-Feb-20 17:01N 47°21' W 003°09'612.4
2018-Feb-20 16:30N 47°28' W 003°07'1 1.9
2018-Feb-20 16:00N 47°29' W 003°07'0 0.6
2018-Feb-20 15:30N 47°28' W 003°07'611.2
2018-Feb-20 15:00N 47°23' W 003°08'2 4.0
2018-Feb-20 14:30N 47°21' W 003°09'0 0.9
2018-Feb-20 14:00N 47°21' W 003°09'612.2
2018-Feb-20 13:31N 47°27' W 003°07'2 3.2
2018-Feb-20 13:00N 47°29' W 003°07'0 0.0
2018-Feb-20 12:30N 47°29' W 003°07'3 5.7
2018-Feb-20 12:00N 47°26' W 003°08'5 5.2
2018-Feb-20 11:03N 47°21' W 003°09'0 0.0
2018-Feb-20 10:53N 47°21' W 003°09'2 6.7
2018-Feb-20 10:31N 47°23' W 003°08'510.8
2018-Feb-20 10:00N 47°29' W 003°07'0 0.0
2018-Feb-20 09:30N 47°29' W 003°07'5 9.7
2018-Feb-20 09:00N 47°24' W 003°08'3 5.6
2018-Feb-20 08:27N 47°21' W 003°09'0 0.0
2018-Feb-20 07:58N 47°21' W 003°09'5 9.9
2018-Feb-20 07:30N 47°25' W 003°07'3 6.8
2018-Feb-20 07:00N 47°29' W 003°07'0 0.9
2018-Feb-20 06:30N 47°28' W 003°07'611.4
2018-Feb-20 06:00N 47°23' W 003°08'2 3.5
2018-Feb-20 05:30N 47°21' W 003°09'0 0.1
2018-Feb-20 05:00N 47°21' W 003°09'0 0.0
2018-Feb-19 17:34N 47°21' W 003°09'0 0.0
2018-Feb-19 17:30N 47°21' W 003°09'1 1.3
2018-Feb-19 17:00N 47°21' W 003°08'612.3
2018-Feb-19 16:30N 47°27' W 003°07'1 2.3
2018-Feb-19 16:00N 47°29' W 003°07'1 3.0
2018-Feb-19 15:30N 47°27' W 003°08'611.7
2018-Feb-19 15:00N 47°21' W 003°09'1 1.1
2018-Feb-19 14:20N 47°21' W 003°09'1 4.5
2018-Feb-19 14:01N 47°22' W 003°08'612.0
2018-Feb-19 13:30N 47°28' W 003°07'0 0.8
2018-Feb-19 13:00N 47°29' W 003°07'0 0.0
2018-Feb-19 12:30N 47°29' W 003°07'3 6.8
2018-Feb-19 12:00N 47°25' W 003°08'4 8.6
2018-Feb-19 11:29N 47°21' W 003°09'0 0.0
2018-Feb-19 10:51N 47°21' W 003°09'3 9.8
2018-Feb-19 10:30N 47°24' W 003°08'4 8.8
2018-Feb-19 10:00N 47°29' W 003°07'0 0.4
2018-Feb-19 09:30N 47°28' W 003°07'611.7
2018-Feb-19 09:00N 47°23' W 003°08'2 2.7
2018-Feb-19 08:18N 47°21' W 003°09'0 0.0
2018-Feb-19 07:59N 47°21' W 003°09'510.5
2018-Feb-19 07:30N 47°26' W 003°08'3 5.6
2018-Feb-19 07:00N 47°29' W 003°07'0 0.0
2018-Feb-19 06:30N 47°29' W 003°07'3 6.0
2018-Feb-19 06:00N 47°26' W 003°08'5 9.7
2018-Feb-19 05:30N 47°21' W 003°09'0 0.0
2018-Feb-19 05:00N 47°21' W 003°09'0 0.0
2018-Feb-18 17:28N 47°21' W 003°09'0 0.2
2018-Feb-18 17:01N 47°21' W 003°09'611.2
2018-Feb-18 16:30N 47°26' W 003°07'2 4.6
2018-Feb-18 16:00N 47°29' W 003°07'0 0.3
2018-Feb-18 15:30N 47°29' W 003°07'611.5
2018-Feb-18 15:00N 47°23' W 003°08'2 2.2
2018-Feb-18 14:04N 47°21' W 003°09'0 6.6
2018-Feb-18 14:00N 47°21' W 003°09'612.0
2018-Feb-18 13:30N 47°27' W 003°07'2 3.5
2018-Feb-18 13:00N 47°29' W 003°07'0 0.0
2018-Feb-18 12:30N 47°29' W 003°07'3 6.0
2018-Feb-18 12:00N 47°26' W 003°09'5 4.2
2018-Feb-18 10:51N 47°21' W 003°09'3 9.6
2018-Feb-18 10:30N 47°24' W 003°08'5 9.2
2018-Feb-18 10:00N 47°29' W 003°07'0 0.3
2018-Feb-18 09:31N 47°29' W 003°07'611.5
2018-Feb-18 09:00N 47°23' W 003°08'2 1.9
2018-Feb-18 07:55N 47°21' W 003°09'410.9
2018-Feb-18 07:30N 47°25' W 003°08'3 6.8
2018-Feb-18 07:00N 47°29' W 003°07'3 6.6
2018-Feb-18 06:30N 47°25' W 003°08'5 8.3
2018-Feb-18 05:57N 47°21' W 003°09'0 0.0
2018-Feb-18 05:30N 47°21' W 003°09'0 0.0
2018-Feb-17 17:28N 47°21' W 003°09'0 0.1
2018-Feb-17 17:00N 47°21' W 003°09'611.1
2018-Feb-17 16:30N 47°26' W 003°08'2 4.7
2018-Feb-17 16:00N 47°29' W 003°07'0 0.1
2018-Feb-17 15:31N 47°29' W 003°07'611.3
2018-Feb-17 15:00N 47°23' W 003°08'2 4.3
2018-Feb-17 14:30N 47°21' W 003°09'0 0.7
2018-Feb-17 14:00N 47°21' W 003°09'612.3
2018-Feb-17 13:30N 47°27' W 003°07'2 3.3
2018-Feb-17 13:00N 47°29' W 003°07'0 0.0
2018-Feb-17 12:30N 47°29' W 003°07'3 6.0
2018-Feb-17 12:00N 47°26' W 003°08'5 7.4
2018-Feb-17 11:21N 47°21' W 003°09'0 0.0
2018-Feb-17 11:00N 47°21' W 003°09'3 5.5
2018-Feb-17 10:30N 47°23' W 003°08'510.3
2018-Feb-17 10:00N 47°29' W 003°07'0 0.0
2018-Feb-17 09:30N 47°29' W 003°07'510.3
2018-Feb-17 09:00N 47°23' W 003°08'3 5.3
2018-Feb-17 08:30N 47°21' W 003°09'0 0.0
2018-Feb-17 07:59N 47°21' W 003°09'510.2
2018-Feb-17 07:30N 47°26' W 003°08'3 6.1
2018-Feb-17 07:01N 47°29' W 003°07'0 0.6
2018-Feb-17 06:31N 47°28' W 003°07'611.6
2018-Feb-17 06:00N 47°23' W 003°09'2 3.6
2018-Feb-17 05:30N 47°21' W 003°09'0 0.1
2018-Feb-17 05:00N 47°21' W 003°09'0 0.0
2018-Feb-16 19:57N 47°21' W 003°09'0 0.3
2018-Feb-16 19:31N 47°21' W 003°09'611.1
2018-Feb-16 19:00N 47°26' W 003°08'2 4.6
2018-Feb-16 18:30N 47°29' W 003°07'4 7.4
2018-Feb-16 18:00N 47°25' W 003°08'4 8.1
2018-Feb-16 17:29N 47°21' W 003°09'1 2.7
2018-Feb-16 17:00N 47°22' W 003°08'612.0
2018-Feb-16 16:30N 47°28' W 003°07'1 1.3
2018-Feb-16 16:00N 47°29' W 003°07'2 3.1
2018-Feb-16 15:30N 47°27' W 003°08'611.6
2018-Feb-16 15:00N 47°21' W 003°09'1 1.1
2018-Feb-16 14:30N 47°21' W 003°09'1 1.1
2018-Feb-16 14:00N 47°21' W 003°08'612.3
2018-Feb-16 13:30N 47°27' W 003°07'1 2.8
2018-Feb-16 13:00N 47°29' W 003°07'0 0.0
2018-Feb-16 12:30N 47°29' W 003°07'4 8.4
2018-Feb-16 12:00N 47°24' W 003°08'4 6.8
2018-Feb-16 11:28N 47°21' W 003°09'0 0.0
2018-Feb-16 10:59N 47°21' W 003°09'3 5.7
2018-Feb-16 10:30N 47°24' W 003°08'510.2
2018-Feb-16 10:00N 47°29' W 003°07'0 0.0
2018-Feb-16 09:31N 47°29' W 003°07'510.9
2018-Feb-16 09:00N 47°23' W 003°08'2 2.9
2018-Feb-16 08:10N 47°21' W 003°09'0 2.0
2018-Feb-16 08:01N 47°21' W 003°09'611.7
2018-Feb-16 07:30N 47°27' W 003°07'2 3.8
2018-Feb-16 07:00N 47°29' W 003°07'0 0.5
2018-Feb-16 06:31N 47°28' W 003°07'612.0
2018-Feb-16 06:00N 47°22' W 003°08'2 3.3
2018-Feb-16 05:30N 47°21' W 003°09'0 0.1
2018-Feb-16 05:00N 47°21' W 003°09'0 0.0
2018-Feb-15 17:37N 47°21' W 003°09'0 0.0
2018-Feb-15 17:30N 47°21' W 003°09'  

Dump ship's entire track history